Belfast, Ohio
Current Conditions -  °F | °C
As of 5:54 PM on Thursday 23 Oct 2014 (Local Time) from KILN Reporting Station
Clear Clear  
Wind Chill: 57°   Ceiling: Unl
Heat Index: 57°   Visibility: 10mi
Dew Point: 40°   Wind: 6mph
Humidity: 53%   Direction: 350°N
Pressure: 30.13"   Gusts: NA
Location:  39.1546°N, 83.569°W
Report Text: KILN 232154Z AUTO 35005KT 10SM CLR 14/04 A3013 RMK AO2 SLP214 T01390044
Loading
Personal Weather Stations






























Interactive Weather Map
Tropical Storm Tracking
New forecast layout! Learn more

10-Day Weather Forecast

Advertisements
Track Severe Weather on mobile